createdAt,value
2022-11-14T00:00:34.282Z,7.15
2022-11-14T00:03:19.878Z,7.15
2022-11-14T00:06:06.722Z,7.95
2022-11-14T00:08:54.639Z,7.25
2022-11-14T00:11:39.855Z,8.32
2022-11-14T00:14:24.984Z,8.18
2022-11-14T00:19:55.305Z,8.43
2022-11-14T00:25:25.572Z,9.18
2022-11-14T00:30:56.235Z,8.07
2022-11-14T00:33:44.317Z,9.20
2022-11-14T00:36:29.838Z,9.00
2022-11-14T00:39:15.320Z,8.85
2022-11-14T00:42:00.596Z,10.27
2022-11-14T00:44:45.768Z,9.45
2022-11-14T00:47:31.085Z,10.02
2022-11-14T00:50:17.285Z,10.35
2022-11-14T00:53:02.456Z,9.00
2022-11-14T00:55:48.058Z,10.13
2022-11-14T01:01:18.519Z,9.97
2022-11-14T01:04:04.240Z,9.20
2022-11-14T01:06:49.670Z,9.35
2022-11-14T01:09:34.996Z,8.20
2022-11-14T01:12:20.274Z,8.95
2022-11-14T01:15:05.798Z,9.10
2022-11-14T01:17:51.171Z,9.23
2022-11-14T01:20:39.481Z,8.70
2022-11-14T01:23:24.515Z,8.68
2022-11-14T01:28:55.942Z,9.52
2022-11-14T01:31:41.328Z,9.40
2022-11-14T01:34:26.648Z,9.73
2022-11-14T01:37:11.804Z,10.00
2022-11-14T01:42:41.750Z,9.55
2022-11-14T01:45:52.984Z,10.27
2022-11-14T01:48:54.380Z,9.43
2022-11-14T01:51:42.767Z,8.77
2022-11-14T01:54:30.841Z,8.70
2022-11-14T01:57:20.511Z,8.38
2022-11-14T02:00:11.020Z,9.68
2022-11-14T02:02:57.573Z,8.70
2022-11-14T02:05:44.515Z,9.00
2022-11-14T02:08:30.302Z,8.93
2022-11-14T02:11:15.626Z,9.35
2022-11-14T02:17:07.284Z,8.18
2022-11-14T02:20:02.193Z,8.85
2022-11-14T02:22:50.284Z,9.10
2022-11-14T02:25:35.557Z,8.73
2022-11-14T02:31:06.943Z,8.95
2022-11-14T02:33:51.855Z,10.15
2022-11-14T02:39:22.156Z,9.27
2022-11-14T02:44:52.579Z,9.77
2022-11-14T02:47:37.970Z,9.43
2022-11-14T02:50:23.372Z,10.25
2022-11-14T02:53:08.447Z,10.23
2022-11-14T02:58:38.783Z,10.23
2022-11-14T03:01:23.823Z,8.07
2022-11-14T03:04:09.374Z,8.15
2022-11-14T03:06:54.913Z,8.20
2022-11-14T03:09:40.176Z,7.40
2022-11-14T03:12:25.545Z,6.95
2022-11-14T03:15:11.366Z,7.20
2022-11-14T03:17:56.601Z,7.03
2022-11-14T03:20:41.914Z,7.03
2022-11-14T03:23:26.916Z,7.75
2022-11-14T03:26:13.127Z,9.05
2022-11-14T03:28:58.531Z,7.35
2022-11-14T03:34:28.739Z,8.00
2022-11-14T03:37:14.035Z,8.18
2022-11-14T03:39:59.283Z,9.13
2022-11-14T03:42:44.694Z,7.82
2022-11-14T03:45:29.568Z,7.97
2022-11-14T03:48:15.201Z,7.40
2022-11-14T03:51:00.504Z,7.68
2022-11-14T03:53:45.796Z,9.25
2022-11-14T03:56:31.091Z,8.40
2022-11-14T04:02:01.230Z,10.50
2022-11-14T04:04:46.058Z,8.20
2022-11-14T04:07:31.517Z,8.32
2022-11-14T04:13:01.879Z,8.55
2022-11-14T04:15:47.339Z,8.27
2022-11-14T04:18:32.695Z,8.48
2022-11-14T04:21:18.235Z,8.50
2022-11-14T04:24:07.146Z,8.95
2022-11-14T04:26:56.289Z,9.43
2022-11-14T04:29:41.600Z,8.48
2022-11-14T04:32:27.023Z,8.10
2022-11-14T04:35:11.854Z,9.15
2022-11-14T04:37:57.109Z,8.50
2022-11-14T04:40:48.927Z,8.10
2022-11-14T04:43:34.096Z,8.85
2022-11-14T04:49:04.099Z,8.27
2022-11-14T04:51:49.832Z,8.43
2022-11-14T04:54:35.004Z,8.68
2022-11-14T05:00:05.820Z,8.13
2022-11-14T05:02:51.064Z,8.63
2022-11-14T05:05:41.589Z,9.20
2022-11-14T05:08:27.507Z,9.43
2022-11-14T05:11:16.971Z,8.15
2022-11-14T05:14:02.230Z,8.82
2022-11-14T05:19:32.328Z,8.63
2022-11-14T05:25:02.604Z,8.88
2022-11-14T05:30:32.729Z,8.30
2022-11-14T05:33:17.742Z,8.95
2022-11-14T05:36:07.527Z,8.77
2022-11-14T05:38:52.550Z,7.32
2022-11-14T05:41:37.729Z,7.78
2022-11-14T05:44:22.691Z,16.02
2022-11-14T05:49:52.935Z,19.75
2022-11-14T05:52:38.171Z,18.70
2022-11-14T05:55:25.167Z,16.92
2022-11-14T05:58:10.627Z,22.73
2022-11-14T06:01:09.976Z,22.80
2022-11-14T06:03:55.312Z,23.95
2022-11-14T06:06:40.878Z,24.70
2022-11-14T06:09:25.883Z,21.95
2022-11-14T06:12:11.389Z,23.42
2022-11-14T06:14:56.261Z,21.73
2022-11-14T06:17:41.718Z,27.30
2022-11-14T06:20:27.025Z,19.33
2022-11-14T06:23:12.062Z,18.23
2022-11-14T06:26:01.850Z,15.77
2022-11-14T06:28:47.164Z,16.60
2022-11-14T06:31:32.316Z,16.73
2022-11-14T06:34:17.272Z,22.27
2022-11-14T06:37:02.084Z,24.50
2022-11-14T06:42:32.257Z,18.80
2022-11-14T06:45:17.193Z,20.38
2022-11-14T06:48:02.563Z,18.83
2022-11-14T06:50:54.834Z,19.00
2022-11-14T06:53:40.973Z,18.65
2022-11-14T06:56:26.549Z,18.25
2022-11-14T06:59:12.142Z,16.08
2022-11-14T07:01:57.085Z,17.77
2022-11-14T07:04:44.989Z,15.25
2022-11-14T07:07:29.857Z,22.33
2022-11-14T07:10:15.415Z,18.13
2022-11-14T07:13:00.626Z,15.80
2022-11-14T07:15:53.096Z,19.77
2022-11-14T07:18:41.241Z,15.35
2022-11-14T07:21:27.391Z,16.95
2022-11-14T07:24:12.463Z,15.15
2022-11-14T07:26:57.650Z,14.98
2022-11-14T07:29:42.963Z,15.35
2022-11-14T07:35:13.511Z,15.30
2022-11-14T07:41:09.425Z,15.55
2022-11-14T07:43:54.518Z,16.38
2022-11-14T07:46:39.841Z,13.98
2022-11-14T07:52:10.066Z,14.13
2022-11-14T07:54:55.000Z,15.30
2022-11-14T07:57:43.919Z,14.75
2022-11-14T08:00:31.743Z,14.02
2022-11-14T08:03:16.676Z,14.70
2022-11-14T08:08:47.863Z,12.70
2022-11-14T08:14:32.863Z,13.45
2022-11-14T08:17:18.070Z,12.77
2022-11-14T08:20:04.854Z,12.90
2022-11-14T08:22:50.058Z,14.68
2022-11-14T08:25:35.408Z,13.75
2022-11-14T08:28:20.676Z,12.32
2022-11-14T08:31:05.808Z,12.50
2022-11-14T08:33:52.454Z,13.35
2022-11-14T08:36:37.725Z,12.63
2022-11-14T08:39:23.177Z,11.82
2022-11-14T08:42:08.364Z,12.10
2022-11-14T08:47:38.540Z,12.63
2022-11-14T08:53:10.422Z,11.85
2022-11-14T08:55:55.863Z,11.70
2022-11-14T08:58:41.018Z,11.98
2022-11-14T09:01:26.349Z,11.68
2022-11-14T09:04:11.346Z,11.48
2022-11-14T09:06:58.937Z,11.35
2022-11-14T09:09:44.272Z,10.85
2022-11-14T09:12:29.471Z,13.23
2022-11-14T09:15:14.816Z,10.90
2022-11-14T09:20:44.862Z,11.15
2022-11-14T09:23:30.384Z,11.45
2022-11-14T09:26:16.215Z,11.45
2022-11-14T09:29:02.199Z,10.80
2022-11-14T09:31:47.420Z,10.75
2022-11-14T09:34:32.383Z,10.98
2022-11-14T09:37:17.538Z,9.95
2022-11-14T09:40:03.599Z,10.43
2022-11-14T09:42:51.782Z,10.05
2022-11-14T09:45:42.195Z,9.85
2022-11-14T09:48:30.021Z,10.20
2022-11-14T09:51:20.283Z,10.85
2022-11-14T09:54:14.879Z,10.30
2022-11-14T09:57:00.918Z,10.15
2022-11-14T09:59:46.382Z,10.85
2022-11-14T10:05:33.655Z,9.98
2022-11-14T10:08:37.805Z,9.98
2022-11-14T10:11:34.976Z,9.63
2022-11-14T10:14:38.464Z,10.02
2022-11-14T10:17:47.721Z,10.52
2022-11-14T10:20:53.209Z,10.27
2022-11-14T10:23:57.208Z,9.85
2022-11-14T10:26:51.692Z,10.15
2022-11-14T10:29:58.548Z,10.05
2022-11-14T10:33:32.098Z,9.88
2022-11-14T10:36:28.186Z,9.82
2022-11-14T10:39:24.394Z,9.50
2022-11-14T10:42:20.809Z,9.73
2022-11-14T10:45:28.528Z,9.98
2022-11-14T10:48:17.628Z,11.45
2022-11-14T10:51:13.540Z,10.23
2022-11-14T10:54:04.022Z,9.68
2022-11-14T10:56:51.197Z,9.75
2022-11-14T10:59:36.458Z,9.38
2022-11-14T11:05:15.470Z,9.07
2022-11-14T11:08:41.948Z,9.68
2022-11-14T11:11:29.778Z,9.57
2022-11-14T11:14:19.229Z,8.95
2022-11-14T11:17:23.322Z,8.73
2022-11-14T11:20:23.496Z,10.05
2022-11-14T11:23:12.147Z,9.45
2022-11-14T11:26:09.140Z,8.65
2022-11-14T11:29:09.948Z,9.52
2022-11-14T11:31:58.034Z,8.95
2022-11-14T11:34:43.442Z,8.90
2022-11-14T11:37:55.013Z,9.23
2022-11-14T11:40:41.494Z,9.38
2022-11-14T11:43:39.886Z,9.13
2022-11-14T11:46:31.727Z,8.30
2022-11-14T11:49:35.274Z,8.32
2022-11-14T11:52:42.022Z,8.20
2022-11-14T11:55:35.124Z,8.13
2022-11-14T11:58:26.905Z,8.15
2022-11-14T12:01:12.951Z,7.88
2022-11-14T12:03:58.651Z,8.18
2022-11-14T12:07:12.477Z,7.45
2022-11-14T12:10:14.154Z,7.70
2022-11-14T12:13:20.631Z,7.90
2022-11-14T12:16:23.722Z,7.47
2022-11-14T12:19:39.613Z,8.70
2022-11-14T12:22:53.453Z,8.70
2022-11-14T12:25:41.277Z,8.50
2022-11-14T12:28:45.274Z,8.07
2022-11-14T12:31:33.455Z,8.75
2022-11-14T12:34:30.498Z,8.20
2022-11-14T12:37:21.690Z,8.07
2022-11-14T12:40:12.409Z,8.48
2022-11-14T12:42:59.028Z,8.75
2022-11-14T12:45:44.013Z,8.35
2022-11-14T12:51:24.500Z,8.40
2022-11-14T12:54:44.714Z,7.68
2022-11-14T12:57:49.282Z,8.57
2022-11-14T13:00:46.482Z,8.95
2022-11-14T13:03:53.489Z,8.40
2022-11-14T13:06:49.222Z,9.13
2022-11-14T13:09:40.858Z,8.82
2022-11-14T13:12:44.549Z,9.60
2022-11-14T13:16:06.591Z,8.07
2022-11-14T13:19:28.859Z,8.57
2022-11-14T13:22:16.492Z,8.18
2022-11-14T13:25:01.593Z,8.35
2022-11-14T13:31:17.151Z,9.43
2022-11-14T13:34:40.028Z,8.77
2022-11-14T13:37:56.709Z,8.93
2022-11-14T13:41:21.438Z,8.63
2022-11-14T13:44:24.689Z,7.93
2022-11-14T13:47:41.079Z,8.43
2022-11-14T13:50:32.471Z,8.02
2022-11-14T13:53:23.791Z,8.18
2022-11-14T13:56:50.013Z,7.93
2022-11-14T13:59:48.496Z,8.75
2022-11-14T14:02:44.878Z,8.43
2022-11-14T14:05:55.027Z,7.60
2022-11-14T14:09:01.440Z,8.52
2022-11-14T14:12:04.986Z,8.23
2022-11-14T14:14:59.291Z,7.78
2022-11-14T14:17:47.774Z,7.75
2022-11-14T14:21:06.949Z,7.63
2022-11-14T14:24:00.615Z,7.30
2022-11-14T14:26:55.937Z,7.60
2022-11-14T14:30:08.592Z,8.02
2022-11-14T14:33:09.618Z,7.40
2022-11-14T14:35:54.761Z,7.82
2022-11-14T14:38:40.052Z,7.22
2022-11-14T14:44:32.072Z,7.70
2022-11-14T14:47:34.762Z,7.70
2022-11-14T14:50:24.813Z,7.13
2022-11-14T14:53:25.213Z,7.78
2022-11-14T14:56:22.318Z,7.00
2022-11-14T14:59:21.963Z,7.32
2022-11-14T15:02:14.292Z,7.72
2022-11-14T15:05:00.527Z,7.22
2022-11-14T15:07:46.478Z,7.13
2022-11-14T15:10:32.165Z,6.78
2022-11-14T15:13:18.327Z,6.72
2022-11-14T15:16:04.547Z,6.97
2022-11-14T15:18:52.068Z,7.35
2022-11-14T15:21:37.047Z,7.25
2022-11-14T15:24:23.222Z,8.07
2022-11-14T15:27:13.695Z,7.53
2022-11-14T15:30:01.919Z,7.35
2022-11-14T15:32:51.339Z,8.05
2022-11-14T15:35:38.474Z,7.43
2022-11-14T15:41:29.687Z,6.40
2022-11-14T15:44:32.646Z,7.50
2022-11-14T15:47:37.181Z,7.53
2022-11-14T15:50:32.891Z,7.63
2022-11-14T15:56:11.365Z,6.82
2022-11-14T15:58:56.577Z,7.95
2022-11-14T16:01:43.530Z,7.30
2022-11-14T16:04:31.715Z,7.93
2022-11-14T16:07:17.676Z,6.80
2022-11-14T16:10:03.327Z,6.80
2022-11-14T16:12:52.376Z,7.32
2022-11-14T16:15:37.980Z,6.97
2022-11-14T16:18:23.315Z,7.80
2022-11-14T16:23:55.944Z,7.20
2022-11-14T16:26:41.677Z,7.20
2022-11-14T16:29:26.636Z,6.70
2022-11-14T16:32:12.020Z,6.88
2022-11-14T16:34:56.903Z,5.57
2022-11-14T16:37:42.585Z,6.32
2022-11-14T16:40:28.420Z,6.78
2022-11-14T16:43:14.587Z,6.53
2022-11-14T16:46:04.071Z,6.57
2022-11-14T16:48:49.349Z,5.93
2022-11-14T16:51:51.117Z,6.85
2022-11-14T16:54:36.664Z,6.28
2022-11-14T17:00:09.102Z,7.45
2022-11-14T17:02:54.608Z,7.03
2022-11-14T17:05:47.907Z,6.32
2022-11-14T17:08:32.772Z,6.25
2022-11-14T17:14:03.106Z,6.90
2022-11-14T17:16:48.436Z,6.40
2022-11-14T17:19:33.782Z,6.82
2022-11-14T17:22:19.965Z,7.18
2022-11-14T17:25:05.645Z,6.80
2022-11-14T17:27:51.609Z,7.97
2022-11-14T17:30:43.382Z,6.97
2022-11-14T17:33:28.986Z,7.18
2022-11-14T17:36:14.515Z,7.15
2022-11-14T17:38:59.715Z,7.03
2022-11-14T17:41:45.500Z,6.78
2022-11-14T17:44:30.683Z,6.85
2022-11-14T17:47:15.875Z,6.80
2022-11-14T17:50:01.270Z,6.90
2022-11-14T17:52:46.414Z,6.57
2022-11-14T17:58:16.709Z,6.60
2022-11-14T18:03:47.153Z,6.57
2022-11-14T18:06:33.761Z,7.97
2022-11-14T18:09:19.077Z,7.95
2022-11-14T18:12:04.552Z,5.82
2022-11-14T18:14:49.893Z,7.68
2022-11-14T18:17:35.407Z,7.03
2022-11-14T18:20:20.466Z,6.68
2022-11-14T18:23:05.622Z,6.93
2022-11-14T18:25:51.025Z,6.85
2022-11-14T18:28:36.331Z,6.68
2022-11-14T18:31:21.532Z,7.20
2022-11-14T18:34:06.613Z,6.70
2022-11-14T18:36:51.883Z,11.00
2022-11-14T18:39:36.909Z,6.95
2022-11-14T18:42:22.658Z,6.55
2022-11-14T18:45:08.303Z,6.40
2022-11-14T18:47:53.516Z,6.60
2022-11-14T18:50:39.574Z,6.65
2022-11-14T18:53:24.604Z,6.80
2022-11-14T18:56:15.132Z,7.72
2022-11-14T18:59:00.578Z,6.60
2022-11-14T19:01:46.157Z,6.93
2022-11-14T19:04:31.543Z,6.80
2022-11-14T19:07:16.866Z,6.95
2022-11-14T19:10:02.087Z,10.25
2022-11-14T19:12:48.381Z,8.55
2022-11-14T19:15:33.734Z,10.30
2022-11-14T19:18:19.205Z,14.98
2022-11-14T19:21:04.693Z,17.92
2022-11-14T19:23:53.813Z,25.05
2022-11-14T19:26:39.233Z,25.25
2022-11-14T19:29:25.346Z,27.17
2022-11-14T19:32:10.382Z,24.42
2022-11-14T19:34:55.532Z,22.05
2022-11-14T19:40:26.267Z,26.75
2022-11-14T19:43:11.523Z,27.17
2022-11-14T19:46:00.943Z,27.38
2022-11-14T19:48:46.051Z,28.73
2022-11-14T19:51:32.851Z,29.98
2022-11-14T19:54:18.165Z,31.02
2022-11-14T19:57:03.253Z,29.88
2022-11-14T19:59:48.662Z,28.73
2022-11-14T20:02:33.939Z,30.52
2022-11-14T20:05:19.105Z,28.27
2022-11-14T20:10:59.548Z,32.10
2022-11-14T20:13:46.118Z,32.42
2022-11-14T20:16:33.962Z,30.65
2022-11-14T20:19:19.303Z,29.73
2022-11-14T20:22:06.456Z,27.45
2022-11-14T20:24:51.658Z,27.25
2022-11-14T20:27:36.901Z,27.85
2022-11-14T20:30:22.143Z,29.17
2022-11-14T20:33:08.352Z,27.52
2022-11-14T20:35:53.621Z,27.25
2022-11-14T20:41:24.314Z,27.47
2022-11-14T20:44:09.738Z,26.55
2022-11-14T20:46:56.938Z,26.85
2022-11-14T20:49:43.443Z,28.38
2022-11-14T20:52:28.444Z,27.88
2022-11-14T20:55:14.040Z,26.08
2022-11-14T20:57:59.261Z,25.25
2022-11-14T21:00:44.583Z,39.60
2022-11-14T21:06:16.308Z,24.92
2022-11-14T21:09:01.601Z,25.92
2022-11-14T21:11:47.249Z,25.67
2022-11-14T21:17:17.359Z,25.50
2022-11-14T21:20:02.715Z,26.02
2022-11-14T21:22:47.745Z,25.13
2022-11-14T21:28:17.991Z,24.13
2022-11-14T21:31:22.656Z,26.77
2022-11-14T21:34:11.272Z,26.02
2022-11-14T21:36:57.803Z,26.33
2022-11-14T21:39:43.087Z,25.90
2022-11-14T21:45:13.244Z,26.52
2022-11-14T21:47:58.449Z,27.35
2022-11-14T21:53:29.283Z,25.87
2022-11-14T21:56:17.486Z,27.23
2022-11-14T21:59:14.314Z,27.42
2022-11-14T22:02:18.113Z,26.15
2022-11-14T22:05:03.839Z,23.77
2022-11-14T22:07:48.807Z,24.63
2022-11-14T22:13:19.334Z,26.73
2022-11-14T22:16:06.527Z,26.02
2022-11-14T22:18:52.688Z,26.42
2022-11-14T22:21:38.012Z,25.05
2022-11-14T22:24:23.768Z,25.70
2022-11-14T22:27:11.668Z,23.38
2022-11-14T22:29:56.989Z,25.35
2022-11-14T22:35:27.485Z,24.20
2022-11-14T22:40:58.235Z,25.02
2022-11-14T22:43:43.932Z,23.92
2022-11-14T22:46:29.461Z,23.40
2022-11-14T22:49:19.766Z,22.98
2022-11-14T22:52:06.381Z,23.77
2022-11-14T22:57:36.446Z,22.83
2022-11-14T23:00:21.909Z,22.88
2022-11-14T23:03:07.422Z,21.77
2022-11-14T23:05:52.899Z,21.67
2022-11-14T23:08:38.569Z,22.23
2022-11-14T23:14:12.371Z,20.98
2022-11-14T23:16:57.238Z,21.35
2022-11-14T23:19:42.929Z,21.60
2022-11-14T23:22:27.911Z,22.15
2022-11-14T23:25:12.953Z,20.50
2022-11-14T23:27:58.374Z,20.67
2022-11-14T23:30:43.678Z,21.15
2022-11-14T23:33:29.826Z,20.35
2022-11-14T23:36:15.512Z,19.92
2022-11-14T23:39:00.860Z,21.83
2022-11-14T23:41:45.823Z,20.52
2022-11-14T23:47:16.254Z,18.03
2022-11-14T23:52:46.800Z,20.90
2022-11-14T23:55:31.726Z,20.48
2022-11-14T23:58:17.066Z,19.40
